POGODA: Poland

Lotnisko: Warszawa-Okecie

METAR KOD: EPWA


METAR: EPWA 012200Z 09008KT CAVOK 12/06 Q1028 NOSIG


BLOK
Pogoda METAR
012200Z
Dzien: 01, Godzina: 22:00 UTC.
09008KT
Wiatr z kierunku 090, o predkosci 15 km/h
CAVOK
Widzialnosc pow. 10 km, brak chmur pon. 1500 m., brak CB, brak opadow, burz i innych
12/06
Temperatura: powietrze 12°C, punkt rosy 6°C . Wilgotnosc wzgledna 50 %
Q1028
Cisnienie: 1028 hPa
NOSIG
Pogoda bedzie bez zmian

Pogoda na innym lotnisku

Pogoda Gdansk-Rebiechowo WEATHER Poland  
Pogoda Katowice WEATHER Poland  
Pogoda Krakow WEATHER Poland  
Pogoda Poznan WEATHER Poland  
Pogoda Rzeszow-Jasionka WEATHER Poland  
Pogoda Szczecin WEATHER Poland  
Pogoda Warszawa-Okecie WEATHER Poland  
Pogoda Wroclaw Ii WEATHER Poland  

Pogoda w inny kraju

Strona startowa

(C) by GREGOR 2007
Ogłoszenia Towarzyskie